Elrod, Indiana
Current Conditions -  °F | °C
As of 8:52 AM on Sunday 21 Dec 2014 (Local Time) from KCVG Reporting Station
Haze Haze  
Wind Chill: 27°   Ceiling: 1400
Heat Index: 27°   Visibility: 5mi
Dew Point: 21°   Wind: 3mph
Humidity: 78%   Direction: 120°ESE
Pressure: 30.3"   Gusts: NA
Location:  38.9645°N, 85.0582°W
Report Text: KCVG 211352Z 12003KT 5SM HZ BKN014 M03/M06 A3030 RMK AO2 SLP267 T10281061
Loading
Personal Weather Stations






























Interactive Weather Map New forecast layout! Learn more

10-Day Weather Forecast

Advertisements
Track Severe Weather on mobile